Minnesota Lake, Minnesota
Current Conditions -  °F | °C
As of 11:14 PM on Sunday 19 Oct 2014 (Local Time) from KACQ Reporting Station
Clear Clear  
Wind Chill: 52°   Ceiling: Unl
Heat Index: 52°   Visibility: 10mi
Dew Point: 37°   Wind: 8mph
Humidity: 58%   Direction: 320°NW
Pressure: 29.88"   Gusts: NA
Location:  43.84°N, 93.83°W
Report Text: KACQ 200414Z AUTO 32007KT 10SM CLR 11/03 A2988 RMK AO2
Loading
Personal Weather Stations






























Interactive Weather Map
Tropical Storm Tracking
New forecast layout! Learn more

10-Day Weather Forecast

Advertisements
Track Severe Weather on mobile